createdAt,value
2019-06-08T00:01:16.409Z,0.55
2019-06-08T00:03:44.126Z,0.60
2019-06-08T00:06:12.617Z,0.45
2019-06-08T00:08:40.108Z,0.50
2019-06-08T00:11:07.468Z,0.60
2019-06-08T00:13:34.916Z,0.50
2019-06-08T00:16:02.206Z,0.60
2019-06-08T00:18:29.570Z,0.40
2019-06-08T00:20:57.067Z,0.50
2019-06-08T00:23:24.362Z,0.53
2019-06-08T00:25:51.720Z,0.80
2019-06-08T00:28:20.321Z,0.60
2019-06-08T00:30:47.976Z,0.40
2019-06-08T00:33:16.874Z,0.40
2019-06-08T00:35:44.701Z,0.40
2019-06-08T00:38:12.046Z,0.60
2019-06-08T00:40:39.558Z,0.80
2019-06-08T00:43:07.028Z,0.88
2019-06-08T00:45:34.328Z,0.70
2019-06-08T00:48:01.868Z,0.40
2019-06-08T00:50:29.462Z,0.70
2019-06-08T00:52:56.968Z,0.70
2019-06-08T00:55:25.731Z,0.70
2019-06-08T00:57:53.304Z,0.50
2019-06-08T01:00:20.622Z,0.33
2019-06-08T01:02:48.040Z,1.02
2019-06-08T01:05:15.583Z,0.73
2019-06-08T01:07:42.940Z,0.65
2019-06-08T01:10:10.699Z,0.60
2019-06-08T01:12:38.100Z,0.60
2019-06-08T01:15:06.299Z,0.90
2019-06-08T01:17:33.917Z,0.65
2019-06-08T01:20:01.412Z,0.95
2019-06-08T01:22:29.596Z,0.65
2019-06-08T01:24:56.932Z,0.60
2019-06-08T01:27:24.428Z,0.53
2019-06-08T01:29:52.054Z,0.40
2019-06-08T01:32:20.292Z,0.40
2019-06-08T01:34:47.913Z,0.45
2019-06-08T01:37:15.199Z,0.70
2019-06-08T01:39:42.493Z,0.68
2019-06-08T01:42:10.242Z,0.45
2019-06-08T01:44:37.591Z,0.70
2019-06-08T01:47:04.967Z,0.60
2019-06-08T01:49:32.586Z,0.50
2019-06-08T01:51:59.976Z,0.55
2019-06-08T01:54:27.268Z,0.75
2019-06-08T01:56:54.626Z,0.50
2019-06-08T01:59:23.256Z,1.22
2019-06-08T02:01:50.648Z,0.65
2019-06-08T02:04:17.968Z,0.78
2019-06-08T02:06:45.408Z,1.27
2019-06-08T02:09:12.693Z,0.55
2019-06-08T02:11:40.013Z,0.60
2019-06-08T02:14:07.452Z,0.55
2019-06-08T02:16:35.465Z,0.88
2019-06-08T02:19:02.971Z,0.93
2019-06-08T02:21:30.868Z,0.78
2019-06-08T02:23:58.284Z,0.70
2019-06-08T02:26:27.575Z,0.70
2019-06-08T02:28:54.999Z,0.47
2019-06-08T02:31:22.355Z,0.55
2019-06-08T02:33:49.691Z,0.70
2019-06-08T02:36:17.057Z,0.85
2019-06-08T02:38:44.425Z,0.95
2019-06-08T02:41:11.848Z,0.80
2019-06-08T02:43:40.248Z,0.72
2019-06-08T02:46:07.812Z,0.60
2019-06-08T02:48:37.250Z,0.85
2019-06-08T02:51:05.841Z,0.70
2019-06-08T02:53:35.949Z,0.65
2019-06-08T02:56:04.006Z,0.70
2019-06-08T02:58:33.516Z,0.85
2019-06-08T03:01:01.977Z,0.57
2019-06-08T03:03:31.602Z,1.12
2019-06-08T03:06:00.410Z,0.60
2019-06-08T03:08:28.224Z,0.70
2019-06-08T03:10:55.563Z,0.60
2019-06-08T03:13:23.545Z,0.80
2019-06-08T03:15:50.909Z,0.90
2019-06-08T03:18:18.486Z,0.80
2019-06-08T03:20:45.913Z,0.90
2019-06-08T03:23:13.206Z,1.00
2019-06-08T03:25:47.344Z,0.90
2019-06-08T03:28:09.781Z,1.10
2019-06-08T03:30:44.505Z,1.05
2019-06-08T03:33:06.745Z,0.70
2019-06-08T03:35:36.008Z,0.80
2019-06-08T03:38:03.395Z,1.00
2019-06-08T03:40:30.920Z,0.70
2019-06-08T03:43:00.320Z,0.85
2019-06-08T03:45:27.554Z,0.60
2019-06-08T03:47:54.961Z,1.22
2019-06-08T03:50:22.245Z,0.70
2019-06-08T03:52:49.537Z,1.17
2019-06-08T03:55:17.224Z,0.93
2019-06-08T03:57:46.228Z,1.42
2019-06-08T04:00:14.069Z,1.20
2019-06-08T04:02:42.251Z,0.80
2019-06-08T04:05:10.515Z,0.70
2019-06-08T04:07:39.652Z,0.80
2019-06-08T04:10:07.728Z,0.80
2019-06-08T04:12:35.189Z,0.80
2019-06-08T04:15:02.557Z,0.88
2019-06-08T04:17:29.853Z,0.82
2019-06-08T04:20:10.582Z,0.95
2019-06-08T04:22:26.540Z,0.85
2019-06-08T04:24:53.978Z,0.98
2019-06-08T04:27:21.313Z,1.10
2019-06-08T04:29:50.148Z,0.80
2019-06-08T04:32:17.660Z,0.62
2019-06-08T04:34:45.949Z,0.90
2019-06-08T04:37:15.948Z,1.07
2019-06-08T04:39:44.522Z,1.12
2019-06-08T04:42:12.011Z,0.93
2019-06-08T04:44:40.518Z,0.75
2019-06-08T04:47:07.991Z,1.35
2019-06-08T04:49:35.355Z,0.60
2019-06-08T04:52:02.917Z,0.57
2019-06-08T04:54:30.337Z,0.88
2019-06-08T04:56:58.069Z,1.00
2019-06-08T04:59:25.425Z,1.12
2019-06-08T05:01:52.821Z,0.95
2019-06-08T05:04:20.438Z,0.93
2019-06-08T05:06:49.425Z,0.98
2019-06-08T05:09:17.123Z,1.60
2019-06-08T05:11:45.296Z,1.07
2019-06-08T05:14:12.712Z,1.02
2019-06-08T05:16:41.227Z,0.98
2019-06-08T05:19:08.816Z,0.93
2019-06-08T05:21:36.133Z,0.72
2019-06-08T05:24:03.448Z,1.00
2019-06-08T05:26:30.846Z,0.70
2019-06-08T05:28:58.246Z,0.72
2019-06-08T05:31:25.565Z,1.07
2019-06-08T05:33:52.963Z,0.90
2019-06-08T05:36:20.343Z,0.98
2019-06-08T05:38:47.674Z,0.80
2019-06-08T05:41:15.041Z,1.20
2019-06-08T05:43:43.522Z,1.25
2019-06-08T05:46:11.001Z,1.10
2019-06-08T05:48:39.668Z,0.90
2019-06-08T05:51:07.185Z,0.93
2019-06-08T05:53:34.534Z,0.70
2019-06-08T05:56:01.886Z,0.80
2019-06-08T05:58:29.232Z,0.70
2019-06-08T06:00:56.521Z,1.15
2019-06-08T06:03:23.904Z,0.68
2019-06-08T06:05:51.277Z,1.00
2019-06-08T06:08:19.486Z,1.27
2019-06-08T06:10:46.996Z,0.95
2019-06-08T06:13:14.696Z,1.30
2019-06-08T06:15:42.990Z,1.00
2019-06-08T06:18:10.392Z,1.05
2019-06-08T06:20:37.779Z,1.22
2019-06-08T06:23:05.132Z,0.93
2019-06-08T06:25:32.449Z,1.30
2019-06-08T06:27:59.808Z,0.75
2019-06-08T06:30:27.443Z,0.93
2019-06-08T06:32:54.743Z,1.10
2019-06-08T06:35:22.120Z,1.10
2019-06-08T06:37:50.258Z,1.45
2019-06-08T06:40:17.895Z,0.90
2019-06-08T06:42:45.943Z,1.30
2019-06-08T06:45:13.668Z,1.30
2019-06-08T06:47:42.189Z,1.27
2019-06-08T06:50:09.839Z,1.20
2019-06-08T06:52:37.196Z,1.02
2019-06-08T06:55:05.881Z,1.00
2019-06-08T06:57:36.312Z,1.10
2019-06-08T07:00:02.344Z,1.30
2019-06-08T07:02:29.941Z,1.02
2019-06-08T07:04:57.324Z,0.80
2019-06-08T07:07:24.611Z,1.20
2019-06-08T07:09:52.717Z,1.00
2019-06-08T07:12:20.264Z,0.82
2019-06-08T07:14:51.342Z,1.30
2019-06-08T07:17:18.785Z,1.20
2019-06-08T07:19:46.399Z,0.70
2019-06-08T07:22:13.809Z,1.17
2019-06-08T07:24:41.283Z,0.95
2019-06-08T07:27:08.577Z,0.80
2019-06-08T07:29:35.865Z,0.80
2019-06-08T07:32:03.325Z,1.42
2019-06-08T07:34:30.944Z,0.82
2019-06-08T07:36:59.576Z,1.47
2019-06-08T07:39:27.084Z,1.07
2019-06-08T07:41:55.862Z,0.98
2019-06-08T07:44:23.350Z,0.93
2019-06-08T07:46:51.403Z,0.70
2019-06-08T07:49:18.795Z,0.65
2019-06-08T07:51:58.815Z,0.85
2019-06-08T07:54:15.367Z,1.22
2019-06-08T07:56:42.672Z,0.88
2019-06-08T07:59:10.156Z,0.80
2019-06-08T08:01:37.524Z,1.17
2019-06-08T08:04:04.880Z,0.90
2019-06-08T08:06:32.421Z,0.75
2019-06-08T08:08:59.721Z,1.20
2019-06-08T08:11:27.072Z,0.98
2019-06-08T08:13:54.898Z,1.25
2019-06-08T08:16:22.274Z,1.00
2019-06-08T08:18:50.796Z,1.40
2019-06-08T08:21:23.186Z,1.02
2019-06-08T08:23:48.995Z,1.32
2019-06-08T08:26:16.651Z,1.10
2019-06-08T08:28:43.987Z,0.98
2019-06-08T08:31:13.251Z,1.42
2019-06-08T08:33:40.356Z,1.20
2019-06-08T08:36:08.180Z,1.30
2019-06-08T08:38:35.544Z,1.17
2019-06-08T08:41:07.295Z,1.75
2019-06-08T08:43:32.041Z,1.27
2019-06-08T08:46:01.783Z,1.45
2019-06-08T08:48:31.494Z,1.00
2019-06-08T08:51:00.749Z,1.12
2019-06-08T08:53:28.013Z,1.00
2019-06-08T08:56:00.475Z,1.00
2019-06-08T08:58:24.885Z,1.20
2019-06-08T09:00:53.697Z,1.12
2019-06-08T09:03:28.891Z,1.17
2019-06-08T09:05:51.969Z,0.60
2019-06-08T09:08:19.337Z,1.35
2019-06-08T09:10:48.064Z,1.07
2019-06-08T09:13:18.874Z,1.00
2019-06-08T09:15:48.012Z,1.37
2019-06-08T09:18:15.476Z,0.85
2019-06-08T09:20:44.225Z,1.27
2019-06-08T09:23:16.232Z,1.30
2019-06-08T09:25:40.911Z,1.05
2019-06-08T09:28:08.505Z,1.00
2019-06-08T09:30:38.522Z,1.10
2019-06-08T09:33:08.002Z,1.40
2019-06-08T09:35:37.745Z,0.98
2019-06-08T09:38:05.049Z,1.12
2019-06-08T09:40:32.743Z,1.15
2019-06-08T09:43:07.480Z,1.07
2019-06-08T09:45:29.413Z,1.10
2019-06-08T09:48:00.075Z,1.12
2019-06-08T09:50:27.788Z,0.80
2019-06-08T09:53:10.052Z,1.10
2019-06-08T09:55:23.918Z,1.07
2019-06-08T09:57:51.332Z,0.90
2019-06-08T10:00:25.213Z,1.07
2019-06-08T10:02:47.946Z,0.70
2019-06-08T10:05:18.316Z,1.03
2019-06-08T10:07:44.585Z,1.10
2019-06-08T10:10:12.353Z,1.25
2019-06-08T10:12:41.106Z,1.22
2019-06-08T10:15:09.736Z,1.32
2019-06-08T10:17:37.728Z,0.78
2019-06-08T10:20:09.643Z,1.00
2019-06-08T10:22:34.844Z,0.70
2019-06-08T10:25:04.456Z,1.05
2019-06-08T10:27:31.203Z,1.10
2019-06-08T10:30:01.262Z,0.95
2019-06-08T10:32:28.191Z,1.20
2019-06-08T10:34:58.393Z,1.10
2019-06-08T10:37:24.872Z,0.80
2019-06-08T10:39:52.321Z,1.20
2019-06-08T10:42:19.613Z,0.93
2019-06-08T10:44:47.005Z,0.78
2019-06-08T10:47:14.380Z,0.80
2019-06-08T10:49:41.711Z,0.70
2019-06-08T10:52:10.792Z,1.27
2019-06-08T10:54:38.199Z,0.95
2019-06-08T10:57:07.470Z,0.88
2019-06-08T10:59:37.283Z,0.90
2019-06-08T11:02:07.058Z,1.07
2019-06-08T11:04:32.868Z,0.90
2019-06-08T11:07:06.453Z,0.93
2019-06-08T11:09:29.506Z,1.10
2019-06-08T11:11:58.362Z,0.98
2019-06-08T11:14:25.945Z,0.93
2019-06-08T11:16:53.359Z,1.10
2019-06-08T11:19:20.740Z,0.80
2019-06-08T11:21:48.285Z,0.90
2019-06-08T11:24:23.715Z,1.22
2019-06-08T11:26:47.703Z,0.80
2019-06-08T11:29:14.218Z,0.90
2019-06-08T11:31:41.740Z,0.90
2019-06-08T11:34:10.229Z,0.65
2019-06-08T11:36:39.417Z,0.78
2019-06-08T11:39:10.907Z,1.00
2019-06-08T11:41:36.538Z,1.27
2019-06-08T11:44:05.473Z,0.80
2019-06-08T11:46:33.217Z,0.90
2019-06-08T11:49:01.155Z,0.80
2019-06-08T11:51:29.859Z,1.00
2019-06-08T11:53:59.437Z,0.82
2019-06-08T11:56:26.731Z,1.52
2019-06-08T11:58:54.546Z,0.70
2019-06-08T12:01:22.051Z,0.82
2019-06-08T12:03:49.421Z,1.00
2019-06-08T12:06:18.470Z,0.93
2019-06-08T12:08:47.321Z,0.75
2019-06-08T12:11:18.141Z,0.80
2019-06-08T12:13:43.837Z,0.80
2019-06-08T12:16:16.625Z,0.98
2019-06-08T12:18:40.529Z,1.00
2019-06-08T12:21:09.695Z,0.78
2019-06-08T12:23:37.337Z,1.10
2019-06-08T12:26:05.997Z,1.00
2019-06-08T12:28:33.534Z,0.82
2019-06-08T12:31:01.420Z,0.82
2019-06-08T12:33:30.769Z,0.90
2019-06-08T12:35:58.275Z,1.20
2019-06-08T12:38:29.972Z,1.10
2019-06-08T12:40:55.417Z,0.78
2019-06-08T12:43:22.703Z,1.45
2019-06-08T12:45:50.181Z,0.80
2019-06-08T12:48:22.939Z,0.95
2019-06-08T12:50:47.985Z,0.80
2019-06-08T12:53:20.175Z,0.70
2019-06-08T12:55:44.605Z,1.10
2019-06-08T12:58:13.022Z,0.95
2019-06-08T13:00:42.156Z,1.05
2019-06-08T13:03:10.180Z,0.60
2019-06-08T13:05:38.756Z,0.72
2019-06-08T13:08:08.420Z,0.98
2019-06-08T13:10:37.656Z,0.75
2019-06-08T13:13:05.249Z,1.25
2019-06-08T13:15:32.768Z,1.00
2019-06-08T13:18:00.053Z,1.02
2019-06-08T13:20:28.361Z,0.93
2019-06-08T13:22:57.591Z,0.80
2019-06-08T13:25:37.601Z,1.03
2019-06-08T13:27:54.284Z,0.90
2019-06-08T13:30:25.935Z,1.35
2019-06-08T13:32:51.141Z,1.10
2019-06-08T13:35:20.553Z,1.10
2019-06-08T13:37:47.618Z,0.62
2019-06-08T13:40:15.313Z,1.00
2019-06-08T13:42:42.631Z,0.68
2019-06-08T13:45:11.254Z,0.90
2019-06-08T13:47:41.132Z,0.90
2019-06-08T13:50:11.096Z,0.60
2019-06-08T13:52:38.360Z,0.90
2019-06-08T13:55:07.696Z,0.80
2019-06-08T13:57:37.775Z,0.98
2019-06-08T14:00:08.384Z,0.88
2019-06-08T14:02:35.752Z,0.85
2019-06-08T14:05:03.658Z,0.80
2019-06-08T14:07:34.409Z,1.07
2019-06-08T14:10:01.596Z,1.12
2019-06-08T14:12:30.882Z,0.90
2019-06-08T14:14:58.466Z,0.80
2019-06-08T14:17:27.078Z,0.60
2019-06-08T14:19:54.604Z,0.80
2019-06-08T14:22:23.426Z,0.70
2019-06-08T14:24:50.933Z,0.70
2019-06-08T14:27:19.325Z,0.78
2019-06-08T14:29:48.502Z,1.00
2019-06-08T14:32:17.941Z,0.78
2019-06-08T14:34:44.950Z,0.62
2019-06-08T14:37:12.588Z,0.80
2019-06-08T14:39:40.300Z,0.98
2019-06-08T14:42:08.277Z,0.93
2019-06-08T14:44:37.901Z,0.98
2019-06-08T14:47:13.873Z,0.88
2019-06-08T14:49:42.756Z,0.78
2019-06-08T14:52:10.859Z,1.00
2019-06-08T14:54:38.642Z,0.90
2019-06-08T14:57:07.894Z,1.22
2019-06-08T14:59:35.404Z,0.85
2019-06-08T15:02:02.971Z,0.82
2019-06-08T15:04:35.990Z,0.62
2019-06-08T15:06:59.369Z,1.00
2019-06-08T15:09:27.620Z,0.98
2019-06-08T15:11:55.145Z,0.90
2019-06-08T15:14:23.703Z,0.88
2019-06-08T15:16:51.173Z,0.82
2019-06-08T15:19:18.559Z,0.80
2019-06-08T15:21:48.293Z,0.90
2019-06-08T15:24:15.124Z,0.50
2019-06-08T15:26:45.213Z,1.00
2019-06-08T15:29:11.516Z,0.80
2019-06-08T15:31:39.121Z,0.80
2019-06-08T15:34:10.470Z,0.70
2019-06-08T15:36:38.009Z,0.60
2019-06-08T15:39:07.772Z,0.60
2019-06-08T15:41:34.995Z,0.70
2019-06-08T15:44:02.285Z,0.70
2019-06-08T15:46:30.405Z,0.75
2019-06-08T15:48:58.160Z,0.85
2019-06-08T15:51:26.445Z,1.02
2019-06-08T15:53:54.932Z,0.95
2019-06-08T15:56:36.443Z,0.68
2019-06-08T15:58:51.747Z,0.82
2019-06-08T16:01:19.152Z,0.85
2019-06-08T16:03:46.441Z,0.72
2019-06-08T16:06:13.760Z,0.53
2019-06-08T16:08:41.056Z,0.85
2019-06-08T16:11:08.403Z,0.60
2019-06-08T16:13:35.745Z,0.68
2019-06-08T16:16:03.127Z,0.80
2019-06-08T16:18:31.630Z,1.00
2019-06-08T16:20:59.479Z,0.47
2019-06-08T16:23:27.708Z,0.70
2019-06-08T16:25:55.175Z,0.80
2019-06-08T16:28:27.691Z,0.60
2019-06-08T16:30:53.667Z,0.78
2019-06-08T16:33:20.952Z,0.80
2019-06-08T16:35:48.685Z,0.55
2019-06-08T16:38:16.104Z,0.70
2019-06-08T16:40:43.573Z,0.50
2019-06-08T16:43:10.883Z,0.60
2019-06-08T16:45:39.442Z,0.90
2019-06-08T16:48:07.137Z,0.50
2019-06-08T16:50:34.521Z,0.72
2019-06-08T16:53:01.913Z,0.88
2019-06-08T16:55:29.696Z,0.70
2019-06-08T16:57:57.063Z,0.70
2019-06-08T17:00:36.807Z,0.73
2019-06-08T17:02:53.512Z,0.62
2019-06-08T17:05:20.805Z,0.70
2019-06-08T17:07:48.521Z,0.70
2019-06-08T17:10:15.880Z,0.83
2019-06-08T17:12:43.200Z,0.50
2019-06-08T17:15:10.782Z,0.62
2019-06-08T17:17:38.565Z,0.70
2019-06-08T17:20:06.592Z,0.50
2019-06-08T17:22:34.514Z,0.60
2019-06-08T17:25:02.119Z,0.70
2019-06-08T17:27:30.366Z,0.72
2019-06-08T17:29:57.782Z,0.70
2019-06-08T17:32:25.172Z,1.25
2019-06-08T17:34:52.519Z,0.53
2019-06-08T17:37:19.836Z,0.50
2019-06-08T17:39:47.123Z,0.60
2019-06-08T17:42:14.438Z,0.50
2019-06-08T17:44:42.596Z,0.70
2019-06-08T17:47:10.143Z,0.55
2019-06-08T17:49:38.676Z,0.50
2019-06-08T17:52:06.164Z,0.40
2019-06-08T17:54:34.453Z,0.50
2019-06-08T17:57:02.556Z,0.68
2019-06-08T17:59:29.977Z,0.40
2019-06-08T18:01:57.376Z,0.80
2019-06-08T18:04:24.691Z,0.70
2019-06-08T18:06:52.028Z,0.40
2019-06-08T18:09:19.861Z,0.47
2019-06-08T18:11:47.974Z,0.50
2019-06-08T18:14:17.916Z,0.60
2019-06-08T18:16:45.298Z,0.45
2019-06-08T18:19:17.238Z,0.40
2019-06-08T18:21:46.839Z,0.40
2019-06-08T18:24:13.996Z,0.30
2019-06-08T18:26:42.139Z,0.28
2019-06-08T18:29:10.644Z,0.30
2019-06-08T18:31:40.223Z,0.40
2019-06-08T18:34:08.431Z,0.30
2019-06-08T18:36:39.175Z,0.10
2019-06-08T18:39:07.197Z,0.10
2019-06-08T18:41:35.010Z,0.20
2019-06-08T18:44:02.500Z,0.10
2019-06-08T18:46:29.980Z,0.20
2019-06-08T18:48:57.985Z,0.10
2019-06-08T18:51:25.402Z,0.10
2019-06-08T18:54:07.431Z,0.10
2019-06-08T18:56:21.803Z,0.10
2019-06-08T18:58:53.629Z,0.10
2019-06-08T19:01:22.047Z,0.10
2019-06-08T19:03:50.329Z,0.20
2019-06-08T19:06:18.734Z,0.10
2019-06-08T19:08:48.854Z,0.10
2019-06-08T19:11:16.753Z,0.15
2019-06-08T19:13:44.500Z,0.10
2019-06-08T19:16:11.817Z,0.20
2019-06-08T19:18:43.705Z,0.20
2019-06-08T19:21:08.732Z,0.20
2019-06-08T19:23:39.059Z,0.10
2019-06-08T19:26:07.517Z,0.00
2019-06-08T19:28:36.106Z,0.10
2019-06-08T19:31:03.702Z,0.10
2019-06-08T19:33:30.992Z,0.10
2019-06-08T19:35:58.494Z,0.10
2019-06-08T19:38:27.970Z,0.08
2019-06-08T19:40:57.342Z,0.10
2019-06-08T19:43:23.975Z,0.10
2019-06-08T19:45:52.128Z,0.15
2019-06-08T19:48:19.844Z,0.10
2019-06-08T19:50:47.287Z,0.10
2019-06-08T19:53:18.263Z,0.15
2019-06-08T19:55:47.686Z,0.10
2019-06-08T19:58:14.252Z,0.10
2019-06-08T20:00:42.330Z,0.20
2019-06-08T20:03:10.775Z,0.20
2019-06-08T20:05:38.113Z,0.10
2019-06-08T20:08:07.865Z,0.10
2019-06-08T20:10:37.502Z,0.10
2019-06-08T20:13:04.913Z,0.10
2019-06-08T20:15:32.478Z,0.10
2019-06-08T20:18:00.109Z,0.10
2019-06-08T20:20:28.056Z,0.10
2019-06-08T20:22:58.589Z,0.13
2019-06-08T20:25:27.672Z,0.10
2019-06-08T20:27:55.140Z,0.10
2019-06-08T20:30:22.625Z,0.20
2019-06-08T20:32:52.306Z,0.10
2019-06-08T20:35:18.920Z,0.10
2019-06-08T20:37:47.763Z,0.10
2019-06-08T20:40:17.869Z,0.20
2019-06-08T20:42:47.178Z,0.10
2019-06-08T20:45:13.736Z,0.30
2019-06-08T20:47:42.062Z,0.30
2019-06-08T20:50:09.956Z,0.10
2019-06-08T20:52:37.796Z,0.20
2019-06-08T20:55:07.774Z,0.10
2019-06-08T20:57:35.375Z,0.20
2019-06-08T21:00:08.345Z,0.25
2019-06-08T21:02:33.423Z,0.20
2019-06-08T21:05:00.785Z,0.30
2019-06-08T21:07:28.648Z,0.33
2019-06-08T21:09:58.141Z,0.30
2019-06-08T21:12:25.033Z,0.30
2019-06-08T21:14:53.875Z,0.15
2019-06-08T21:17:21.789Z,0.20
2019-06-08T21:19:49.145Z,0.25
2019-06-08T21:22:18.336Z,0.10
2019-06-08T21:24:46.786Z,0.10
2019-06-08T21:27:17.265Z,0.20
2019-06-08T21:29:49.185Z,0.10
2019-06-08T21:32:13.102Z,0.10
2019-06-08T21:34:40.385Z,0.00
2019-06-08T21:37:09.198Z,0.20
2019-06-08T21:39:39.025Z,0.30
2019-06-08T21:42:07.761Z,0.28
2019-06-08T21:44:37.077Z,0.30
2019-06-08T21:47:04.288Z,0.80
2019-06-08T21:49:31.652Z,0.50
2019-06-08T21:52:01.093Z,0.40
2019-06-08T21:54:28.111Z,0.40
2019-06-08T21:56:58.961Z,0.35
2019-06-08T21:59:24.996Z,0.33
2019-06-08T22:01:53.483Z,0.30
2019-06-08T22:04:22.022Z,0.28
2019-06-08T22:06:49.823Z,0.13
2019-06-08T22:09:18.060Z,0.10
2019-06-08T22:11:47.118Z,0.10
2019-06-08T22:14:14.753Z,0.23
2019-06-08T22:16:42.155Z,0.30
2019-06-08T22:19:09.505Z,0.30
2019-06-08T22:21:37.685Z,0.20
2019-06-08T22:24:07.752Z,0.33
2019-06-08T22:26:34.273Z,0.20
2019-06-08T22:29:01.590Z,0.20
2019-06-08T22:31:28.965Z,0.40
2019-06-08T22:33:59.079Z,0.50
2019-06-08T22:36:27.477Z,0.20
2019-06-08T22:38:54.487Z,0.30
2019-06-08T22:41:21.840Z,0.20
2019-06-08T22:43:49.220Z,0.20
2019-06-08T22:46:17.777Z,0.30
2019-06-08T22:48:47.615Z,0.40
2019-06-08T22:51:14.488Z,0.28
2019-06-08T22:53:41.800Z,0.40
2019-06-08T22:56:09.393Z,0.30
2019-06-08T22:58:37.268Z,0.30
2019-06-08T23:01:08.677Z,0.20
2019-06-08T23:03:33.880Z,0.28
2019-06-08T23:06:02.707Z,0.13
2019-06-08T23:08:30.577Z,0.13
2019-06-08T23:10:59.357Z,0.23
2019-06-08T23:13:28.455Z,0.30
2019-06-08T23:15:59.435Z,0.40
2019-06-08T23:18:24.872Z,0.20
2019-06-08T23:20:52.201Z,0.35
2019-06-08T23:23:19.496Z,0.90
2019-06-08T23:25:47.956Z,0.88
2019-06-08T23:28:17.916Z,0.50
2019-06-08T23:30:44.407Z,0.50
2019-06-08T23:33:11.996Z,0.40
2019-06-08T23:35:57.097Z,0.60
2019-06-08T23:38:09.466Z,0.70
2019-06-08T23:40:37.839Z,0.50
2019-06-08T23:43:05.949Z,0.40
2019-06-08T23:45:33.773Z,0.20
2019-06-08T23:48:02.572Z,0.20
2019-06-08T23:50:30.232Z,0.30
2019-06-08T23:52:58.143Z,0.50
2019-06-08T23:55:27.923Z,0.50
2019-06-08T23:57:55.433Z,0.57
